Time;durP1;ratioP1;P1;durP2;ratioP2;P2;SDS_P1;SDS_P2;PMS_P1;PMS_P2;Temp;Humidity;BMP_temperature;BMP_pressure;BME280_temperature;BME280_humidity;BME280_pressure;Samples;Min_cycle;Max_cycle;Signal;HPM_P1;HPM_P2
2020/12/29 00:05:01;;;;;;;3.80;3.50;;;4.90;43.00;;;;;;10410223;28;20222;-68
2020/12/29 00:10:03;;;;;;;3.60;3.30;;;4.90;43.20;;;;;;10403647;28;20223;-69
2020/12/29 00:15:05;;;;;;;3.73;3.43;;;4.90;43.40;;;;;;10410608;28;20708;-68
2020/12/29 00:20:09;;;;;;;3.50;3.20;;;5.00;43.70;;;;;;10405916;28;20233;-68
2020/12/29 00:25:12;;;;;;;4.00;3.70;;;5.00;43.60;;;;;;10402311;28;20275;-68
2020/12/29 00:30:14;;;;;;;4.33;3.93;;;5.00;43.60;;;;;;10402159;28;20759;-67
2020/12/29 00:35:17;;;;;;;4.70;4.30;;;5.00;43.30;;;;;;10399962;28;20644;-68
2020/12/29 00:40:19;;;;;;;3.93;3.63;;;5.10;43.50;;;;;;10407082;28;20221;-68
2020/12/29 00:45:21;;;;;;;4.20;3.47;;;5.00;43.30;;;;;;10409860;28;20226;-67
2020/12/29 00:50:24;;;;;;;3.47;3.17;;;5.00;43.40;;;;;;10421133;28;20209;-67
2020/12/29 00:55:27;;;;;;;3.47;3.17;;;5.00;43.60;;;;;;10426572;28;20224;-68
2020/12/29 01:00:29;;;;;;;3.10;2.70;;;5.00;43.50;;;;;;10417728;28;20564;-67
2020/12/29 01:05:32;;;;;;;3.00;2.80;;;5.00;43.60;;;;;;10406639;28;20316;-67
2020/12/29 01:10:34;;;;;;;2.93;2.73;;;5.00;43.80;;;;;;10429349;28;20247;-68
2020/12/29 01:15:36;;;;;;;2.93;2.67;;;4.90;43.60;;;;;;10422000;28;20225;-68
2020/12/29 01:20:40;;;;;;;2.83;2.63;;;4.90;43.80;;;;;;10428240;28;20221;-68
2020/12/29 01:25:42;;;;;;;2.93;2.63;;;4.90;43.90;;;;;;10429104;28;20232;-67
2020/12/29 01:30:44;;;;;;;3.20;2.90;;;4.90;44.00;;;;;;10413060;28;20739;-67
2020/12/29 01:35:48;;;;;;;2.70;2.50;;;4.90;44.00;;;;;;10417371;28;20234;-67
2020/12/29 01:40:50;;;;;;;2.67;2.47;;;4.90;44.10;;;;;;10421961;28;20243;-67
2020/12/29 01:45:52;;;;;;;2.40;2.20;;;4.90;44.00;;;;;;10420653;28;20607;-68
2020/12/29 01:50:56;;;;;;;2.70;2.50;;;4.90;44.10;;;;;;10423323;28;20312;-67
2020/12/29 01:55:58;;;;;;;2.53;2.33;;;5.00;44.40;;;;;;10425443;28;20230;-67
2020/12/29 02:01:00;;;;;;;2.30;2.10;;;5.00;44.30;;;;;;10411570;28;20234;-68
2020/12/29 02:06:03;;;;;;;2.57;2.37;;;5.00;44.30;;;;;;10438024;28;20311;-67
2020/12/29 02:11:05;;;;;;;2.40;2.30;;;5.10;44.30;;;;;;10434551;28;20300;-68
2020/12/29 02:16:08;;;;;;;2.83;2.60;;;5.20;44.30;;;;;;10434649;28;20720;-68
2020/12/29 02:21:11;;;;;;;2.67;2.47;;;5.20;44.10;;;;;;10416424;28;20596;-67
2020/12/29 02:26:15;;;;;;;3.10;2.80;;;5.20;44.00;;;;;;10414780;28;20227;-68
2020/12/29 02:31:18;;;;;;;2.60;2.37;;;5.30;44.00;;;;;;10430652;28;20217;-68
2020/12/29 02:36:20;;;;;;;2.50;2.30;;;5.20;43.90;;;;;;10417303;28;20647;-68
2020/12/29 02:41:23;;;;;;;2.30;2.10;;;5.20;43.90;;;;;;10410126;28;20236;-68
2020/12/29 02:46:25;;;;;;;3.67;2.20;;;5.20;44.00;;;;;;10416344;28;20229;-67
2020/12/29 02:51:27;;;;;;;1.90;1.80;;;5.20;44.00;;;;;;10413527;28;20605;-74
2020/12/29 02:56:30;;;;;;;2.60;1.60;;;5.20;44.00;;;;;;10412048;28;20234;-73
2020/12/29 03:01:33;;;;;;;2.93;1.47;;;5.20;43.90;;;;;;10435647;28;20574;-73
2020/12/29 03:06:35;;;;;;;1.50;1.40;;;5.30;44.20;;;;;;10433413;28;20221;-73
2020/12/29 03:11:38;;;;;;;2.00;1.67;;;5.30;44.00;;;;;;10439115;28;20230;-73
2020/12/29 03:16:40;;;;;;;1.43;1.33;;;5.30;44.20;;;;;;10433177;28;20233;-73
2020/12/29 03:21:56;;;;;;;1.83;1.70;;;5.30;44.00;;;;;;10442276;28;20315;-73
2020/12/29 03:26:59;;;;;;;1.90;1.80;;;5.40;44.00;;;;;;10431271;28;20598;-73
2020/12/29 03:32:01;;;;;;;1.80;1.70;;;5.50;44.00;;;;;;10462396;28;20232;-72
2020/12/29 03:37:04;;;;;;;1.67;1.57;;;5.50;43.90;;;;;;10454137;28;20255;-72
2020/12/29 03:42:07;;;;;;;2.00;1.80;;;5.50;43.70;;;;;;10461547;28;20332;-72
2020/12/29 03:47:09;;;;;;;1.93;1.80;;;5.50;43.60;;;;;;10454588;28;20233;-72
2020/12/29 03:52:12;;;;;;;1.37;1.27;;;5.50;43.60;;;;;;10450568;28;20229;-72
2020/12/29 03:57:15;;;;;;;1.60;1.50;;;5.50;43.40;;;;;;10464530;28;20233;-72
2020/12/29 04:02:17;;;;;;;1.60;1.50;;;5.50;43.10;;;;;;10449159;28;20229;-73
2020/12/29 04:07:19;;;;;;;1.60;1.50;;;5.50;43.30;;;;;;10462289;28;20236;-72
2020/12/29 04:12:22;;;;;;;3.03;1.60;;;5.50;43.30;;;;;;10457663;28;20599;-72
2020/12/29 04:17:24;;;;;;;1.80;1.70;;;5.50;43.20;;;;;;10453247;28;20252;-73
2020/12/29 04:22:30;;;;;;;1.53;1.43;;;5.50;43.10;;;;;;10448632;28;20703;-72
2020/12/29 04:27:33;;;;;;;1.50;1.40;;;5.50;43.20;;;;;;10447746;28;20317;-73
2020/12/29 04:32:35;;;;;;;1.20;1.13;;;5.50;43.20;;;;;;10452686;28;20234;-72
2020/12/29 04:37:37;;;;;;;1.00;1.00;;;5.50;43.10;;;;;;10450412;28;20247;-72
2020/12/29 04:42:42;;;;;;;1.30;1.20;;;5.60;43.30;;;;;;10477496;28;20602;-72
2020/12/29 04:47:44;;;;;;;1.00;1.00;;;5.70;43.30;;;;;;10465866;28;20318;-73
2020/12/29 04:52:51;;;;;;;1.33;1.10;;;5.80;43.40;;;;;;10461723;28;20220;-72
2020/12/29 04:57:56;;;;;;;1.10;1.00;;;5.90;43.50;;;;;;10465020;28;20505;-73
2020/12/29 05:02:59;;;;;;;0.80;0.80;;;6.00;43.10;;;;;;10460796;28;20216;-73
2020/12/29 05:08:01;;;;;;;0.83;0.83;;;6.00;43.10;;;;;;10466437;28;20697;-73
2020/12/29 05:13:04;;;;;;;1.07;1.00;;;6.10;42.90;;;;;;10467393;28;20212;-72
2020/12/29 05:18:06;;;;;;;1.20;0.80;;;6.20;42.70;;;;;;10458195;28;20232;-72
2020/12/29 05:23:08;;;;;;;0.87;0.60;;;6.30;43.00;;;;;;10461015;28;20213;-73
2020/12/29 05:28:12;;;;;;;0.70;0.70;;;6.50;42.70;;;;;;10463407;28;20239;-73
2020/12/29 05:33:14;;;;;;;0.90;0.80;;;6.70;42.20;;;;;;10456274;28;20242;-73
2020/12/29 05:38:17;;;;;;;0.87;0.60;;;6.90;42.50;;;;;;10472272;28;20239;-73
2020/12/29 05:43:30;;;;;;;1.77;0.80;;;7.10;42.00;;;;;;10458787;28;20223;-73
2020/12/29 05:48:33;;;;;;;0.70;0.70;;;7.30;42.00;;;;;;10461025;28;20239;-72
2020/12/29 05:53:36;;;;;;;1.47;0.80;;;7.40;41.40;;;;;;10454874;28;20227;-72
2020/12/29 05:58:43;;;;;;;2.47;1.00;;;7.60;41.20;;;;;;10460242;28;20237;-72
2020/12/29 06:03:48;;;;;;;0.70;0.70;;;7.70;41.00;;;;;;10460785;28;20228;-72
2020/12/29 06:08:55;;;;;;;1.13;0.80;;;7.80;40.90;;;;;;10455410;28;20270;-71
2020/12/29 06:14:01;;;;;;;2.13;0.70;;;7.90;40.70;;;;;;10455378;28;20229;-71
2020/12/29 06:19:17;;;;;;;1.53;0.80;;;7.90;40.60;;;;;;10453869;28;20707;-71
2020/12/29 06:24:20;;;;;;;1.50;0.87;;;8.00;39.60;;;;;;10461432;28;20220;-71
2020/12/29 06:29:23;;;;;;;1.47;0.90;;;8.00;40.40;;;;;;10458619;28;20235;-71
2020/12/29 06:34:26;;;;;;;0.80;0.80;;;8.10;40.20;;;;;;10465466;28;20235;-71
2020/12/29 06:39:30;;;;;;;1.20;0.73;;;8.10;40.20;;;;;;10459843;28;20225;-71
2020/12/29 06:44:34;;;;;;;2.20;0.80;;;8.10;40.00;;;;;;10454396;28;20227;-71
2020/12/29 06:49:43;;;;;;;0.70;0.70;;;8.20;39.50;;;;;;10455397;28;20307;-71
2020/12/29 06:54:49;;;;;;;2.40;0.83;;;8.20;39.40;;;;;;10462908;28;20598;-71
2020/12/29 06:59:52;;;;;;;0.87;0.57;;;8.20;39.80;;;;;;10460137;28;20239;-71
2020/12/29 07:04:55;;;;;;;1.27;1.10;;;8.20;39.40;;;;;;10453724;28;20225;-72
2020/12/29 07:10:11;;;;;;;1.60;0.90;;;8.20;39.40;;;;;;10454568;28;20303;-71
2020/12/29 07:15:19;;;;;;;1.00;0.90;;;8.20;39.40;;;;;;10461626;28;20231;-71
2020/12/29 07:20:23;;;;;;;1.73;1.60;;;8.20;39.40;;;;;;10460122;28;20585;-71
2020/12/29 07:25:26;;;;;;;2.77;2.37;;;8.20;39.40;;;;;;10451664;28;20236;-71
2020/12/29 07:30:30;;;;;;;2.53;1.87;;;8.10;39.30;;;;;;10458515;28;20220;-66
2020/12/29 07:35:33;;;;;;;1.10;0.83;;;8.10;39.30;;;;;;10449915;28;20720;-66
2020/12/29 07:40:37;;;;;;;1.60;1.43;;;8.10;39.30;;;;;;10457800;28;20233;-66
2020/12/29 07:45:40;;;;;;;1.07;0.90;;;8.10;39.30;;;;;;10453655;28;20236;-66
2020/12/29 07:50:42;;;;;;;1.90;1.10;;;8.10;39.30;;;;;;10451521;28;20607;-66
2020/12/29 07:55:47;;;;;;;1.30;1.13;;;8.10;39.30;;;;;;10461623;28;20606;-66
2020/12/29 08:00:50;;;;;;;2.37;1.50;;;8.10;39.30;;;;;;10448349;28;20583;-66
2020/12/29 08:05:52;;;;;;;1.07;0.87;;;8.10;39.30;;;;;;10463386;28;20232;-66
2020/12/29 08:10:54;;;;;;;2.30;1.53;;;8.10;40.10;;;;;;10450496;28;20578;-66
2020/12/29 08:15:58;;;;;;;1.27;1.00;;;8.10;39.50;;;;;;10453431;28;20233;-66
2020/12/29 08:21:01;;;;;;;2.23;1.13;;;8.20;39.40;;;;;;10459618;28;20262;-66
2020/12/29 08:26:03;;;;;;;1.87;1.10;;;8.30;39.50;;;;;;10447335;28;20236;-71
2020/12/29 08:31:07;;;;;;;3.03;1.00;;;8.40;39.60;;;;;;10454456;28;20213;-71
2020/12/29 08:36:11;;;;;;;4.23;1.70;;;8.50;39.70;;;;;;10454711;28;20220;-71
2020/12/29 08:41:19;;;;;;;2.93;1.57;;;8.50;39.70;;;;;;10449224;28;20213;-71
2020/12/29 08:46:23;;;;;;;3.10;2.03;;;8.60;39.10;;;;;;10452379;28;20236;-71
2020/12/29 08:51:27;;;;;;;4.70;3.27;;;8.60;39.20;;;;;;10454849;28;20231;-71
2020/12/29 08:56:29;;;;;;;2.00;1.13;;;8.70;39.10;;;;;;10453394;28;20622;-72
2020/12/29 09:01:34;;;;;;;1.77;1.50;;;8.70;39.70;;;;;;10453846;28;20229;-72
2020/12/29 09:06:36;;;;;;;3.10;1.40;;;8.70;39.00;;;;;;10461011;28;20240;-72
2020/12/29 09:11:38;;;;;;;1.37;1.27;;;8.90;39.30;;;;;;10448965;28;20225;-72
2020/12/29 09:16:59;;;;;;;1.17;1.10;;;9.00;39.20;;;;;;10455262;28;20308;-67
2020/12/29 09:22:05;;;;;;;1.10;1.00;;;9.10;38.60;;;;;;10455955;28;20221;-68
2020/12/29 09:27:08;;;;;;;1.37;1.27;;;9.20;38.00;;;;;;10449594;28;20239;-67
2020/12/29 09:32:18;;;;;;;1.63;1.30;;;9.30;38.40;;;;;;10466949;28;20229;-67
2020/12/29 09:37:20;;;;;;;0.87;0.80;;;9.40;37.70;;;;;;10460631;28;20238;-67
2020/12/29 09:42:22;;;;;;;1.13;0.90;;;9.50;38.10;;;;;;10464382;28;20225;-67
2020/12/29 09:47:25;;;;;;;1.40;0.90;;;9.60;38.00;;;;;;10463290;28;20735;-66
2020/12/29 09:52:30;;;;;;;2.43;1.00;;;9.70;37.50;;;;;;10459703;28;20622;-67
2020/12/29 09:57:32;;;;;;;3.37;0.87;;;9.70;37.00;;;;;;10460513;28;20579;-67
2020/12/29 10:02:35;;;;;;;2.20;0.87;;;9.80;37.50;;;;;;10452316;28;20232;-66
2020/12/29 10:07:37;;;;;;;1.60;1.00;;;9.80;37.20;;;;;;10472473;28;20628;-67
2020/12/29 10:12:39;;;;;;;1.40;0.87;;;9.90;37.50;;;;;;10453601;28;20320;-67
2020/12/29 10:17:43;;;;;;;1.53;1.23;;;9.90;37.40;;;;;;10452529;28;20235;-67
2020/12/29 10:22:45;;;;;;;3.33;1.50;;;10.00;36.50;;;;;;10459318;28;20765;-67
2020/12/29 10:27:47;;;;;;;2.13;1.43;;;10.10;36.30;;;;;;10462668;28;20231;-67
2020/12/29 10:32:50;;;;;;;1.17;1.07;;;10.10;36.20;;;;;;10461373;28;20221;-67
2020/12/29 10:37:53;;;;;;;1.77;1.07;;;10.10;35.70;;;;;;10455361;28;20227;-67
2020/12/29 10:42:55;;;;;;;2.67;1.40;;;10.10;36.70;;;;;;10461672;28;20217;-67
2020/12/29 10:47:58;;;;;;;1.53;1.07;;;10.10;36.20;;;;;;10461006;28;20225;-67
2020/12/29 10:53:00;;;;;;;1.60;1.10;;;10.20;35.80;;;;;;10454775;28;20275;-67
2020/12/29 10:58:02;;;;;;;0.97;0.80;;;10.30;35.90;;;;;;10470799;28;20229;-67
2020/12/29 11:03:05;;;;;;;0.80;0.80;;;10.40;35.90;;;;;;10455047;28;20221;-67
2020/12/29 11:08:08;;;;;;;1.00;0.90;;;10.40;35.70;;;;;;10463055;28;20225;-67
2020/12/29 11:13:11;;;;;;;0.80;0.80;;;10.40;35.40;;;;;;10453410;28;20231;-67
2020/12/29 11:18:14;;;;;;;0.87;0.87;;;10.50;35.20;;;;;;10457532;28;20225;-67
2020/12/29 11:23:16;;;;;;;1.33;0.80;;;10.40;34.80;;;;;;10459264;28;20224;-67
2020/12/29 11:28:18;;;;;;;2.20;1.17;;;10.40;35.30;;;;;;10456178;28;20220;-67
2020/12/29 11:33:21;;;;;;;1.13;0.80;;;10.40;35.30;;;;;;10458052;28;20232;-68
2020/12/29 11:38:23;;;;;;;1.43;1.00;;;10.40;34.70;;;;;;10461895;28;20233;-67
2020/12/29 11:43:25;;;;;;;0.90;0.90;;;10.40;35.30;;;;;;10458148;28;20640;-67
2020/12/29 11:48:28;;;;;;;2.30;1.00;;;10.30;34.90;;;;;;10457992;28;20243;-67
2020/12/29 11:53:32;;;;;;;2.57;1.10;;;10.30;35.00;;;;;;10451040;28;20714;-67
2020/12/29 11:58:34;;;;;;;0.93;0.80;;;10.30;35.30;;;;;;10457018;28;20240;-67
2020/12/29 12:03:37;;;;;;;0.80;0.80;;;10.30;35.30;;;;;;10469533;28;20228;-67
2020/12/29 12:08:39;;;;;;;1.07;0.77;;;10.40;35.00;;;;;;10456955;28;20236;-67
2020/12/29 12:13:42;;;;;;;1.63;0.80;;;10.50;35.00;;;;;;10457298;28;20239;-67
2020/12/29 12:18:45;;;;;;;1.40;1.20;;;10.60;35.40;;;;;;10450100;28;20233;-67
2020/12/29 12:23:47;;;;;;;2.00;0.90;;;10.60;34.40;;;;;;10457912;28;20225;-67
2020/12/29 12:28:49;;;;;;;1.53;1.10;;;10.70;34.70;;;;;;10452216;28;20260;-67
2020/12/29 12:33:52;;;;;;;1.33;1.10;;;10.80;34.60;;;;;;10447894;28;20239;-67
2020/12/29 12:38:55;;;;;;;1.13;0.90;;;10.80;34.60;;;;;;10461703;28;20240;-67
2020/12/29 12:43:57;;;;;;;0.70;0.70;;;10.90;34.70;;;;;;10454747;28;20225;-67
2020/12/29 12:49:00;;;;;;;1.67;0.83;;;10.90;34.40;;;;;;10454334;28;20237;-67
2020/12/29 12:54:03;;;;;;;0.97;0.60;;;11.00;34.20;;;;;;10455047;28;20323;-68
2020/12/29 12:59:05;;;;;;;0.77;0.60;;;11.00;34.20;;;;;;10455129;28;20610;-67
2020/12/29 13:04:08;;;;;;;3.00;2.30;;;11.10;34.20;;;;;;10465049;28;20228;-67
2020/12/29 13:09:10;;;;;;;1.10;1.00;;;11.10;33.30;;;;;;10466132;28;20231;-67
2020/12/29 13:14:12;;;;;;;1.23;0.97;;;11.00;33.40;;;;;;10465414;28;20384;-67
2020/12/29 13:19:15;;;;;;;1.30;1.20;;;10.90;33.80;;;;;;10463867;28;20315;-67
2020/12/29 13:24:17;;;;;;;2.50;1.03;;;10.80;33.30;;;;;;10456929;28;20221;-67
2020/12/29 13:29:20;;;;;;;1.60;0.93;;;10.60;33.30;;;;;;10455125;28;20237;-67
2020/12/29 13:34:23;;;;;;;2.80;1.47;;;10.50;33.80;;;;;;10464400;28;20221;-67
2020/12/29 13:39:25;;;;;;;2.40;2.00;;;10.30;33.90;;;;;;10458213;28;20228;-67
2020/12/29 13:44:27;;;;;;;1.70;1.60;;;10.20;34.10;;;;;;10466808;28;20587;-67
2020/12/29 13:49:31;;;;;;;0.97;0.90;;;10.20;34.40;;;;;;10463284;28;20225;-67
2020/12/29 13:54:33;;;;;;;1.20;1.10;;;10.10;34.10;;;;;;10460393;28;20224;-67
2020/12/29 13:59:35;;;;;;;1.27;1.00;;;10.10;34.10;;;;;;10459530;28;20236;-72
2020/12/29 14:04:38;;;;;;;1.00;0.90;;;10.00;34.30;;;;;;10463787;28;20237;-73
2020/12/29 14:09:40;;;;;;;0.77;0.77;;;10.00;34.20;;;;;;10454700;28;20243;-73
2020/12/29 14:14:45;;;;;;;1.37;1.00;;;9.90;35.10;;;;;;10464349;28;20236;-67
2020/12/29 14:19:48;;;;;;;0.97;0.90;;;9.90;35.30;;;;;;10452648;28;20725;-74
2020/12/29 14:24:53;;;;;;;0.80;0.80;;;9.90;35.30;;;;;;10466112;28;20242;-73
2020/12/29 14:29:55;;;;;;;0.80;0.80;;;9.80;35.40;;;;;;10454496;28;20220;-74
2020/12/29 14:34:58;;;;;;;1.17;0.70;;;9.90;35.50;;;;;;10453399;28;20228;-73
2020/12/29 14:40:01;;;;;;;0.93;0.80;;;9.90;35.50;;;;;;10460090;28;20674;-70
2020/12/29 14:45:06;;;;;;;3.00;2.73;;;9.90;35.70;;;;;;10454106;28;20221;-72
2020/12/29 14:50:10;;;;;;;8.90;7.37;;;9.90;35.40;;;;;;10456254;28;20600;-73
2020/12/29 14:55:12;;;;;;;8.37;6.33;;;9.90;35.60;;;;;;10455051;28;20229;-67
2020/12/29 15:00:14;;;;;;;9.47;7.17;;;9.80;35.50;;;;;;10453119;28;20551;-67
2020/12/29 15:05:17;;;;;;;22.13;13.37;;;9.80;35.60;;;;;;10457211;28;20761;-67
2020/12/29 15:10:19;;;;;;;31.37;18.27;;;9.70;35.50;;;;;;10450425;28;20701;-67
2020/12/29 15:15:21;;;;;;;20.70;12.00;;;9.60;35.70;;;;;;10460621;28;20241;-67
2020/12/29 15:20:28;;;;;;;13.73;9.33;;;9.60;35.70;;;;;;10451354;28;20227;-67
2020/12/29 15:25:31;;;;;;;15.33;11.20;;;9.60;35.70;;;;;;10449964;28;20693;-73
2020/12/29 15:30:33;;;;;;;15.20;11.07;;;9.50;35.80;;;;;;10460267;28;20227;-73
2020/12/29 15:35:36;;;;;;;13.07;9.20;;;9.50;35.80;;;;;;10449709;28;20705;-74
2020/12/29 15:40:39;;;;;;;6.50;3.93;;;9.40;35.60;;;;;;10458300;28;20235;-73
2020/12/29 15:45:41;;;;;;;2.33;2.00;;;9.30;35.50;;;;;;10454167;28;20597;-73
2020/12/29 15:50:44;;;;;;;1.83;1.67;;;9.20;35.40;;;;;;10451611;28;20232;-74
2020/12/29 15:55:46;;;;;;;2.63;2.20;;;9.10;35.10;;;;;;10451030;28;20253;-74
2020/12/29 16:00:49;;;;;;;6.27;5.03;;;9.00;35.30;;;;;;10452003;28;20239;-74
2020/12/29 16:05:52;;;;;;;6.60;5.70;;;8.80;35.40;;;;;;10461494;28;20224;-74
2020/12/29 16:10:54;;;;;;;9.63;8.73;;;8.70;35.40;;;;;;10452299;28;20239;-74
2020/12/29 16:15:56;;;;;;;14.83;13.33;;;8.60;35.50;;;;;;10452964;28;20808;-74
2020/12/29 16:21:00;;;;;;;13.07;11.73;;;8.50;35.40;;;;;;10447795;28;20227;-73
2020/12/29 16:26:04;;;;;;;21.10;19.10;;;8.30;35.40;;;;;;10456615;28;20600;-73
2020/12/29 16:31:06;;;;;;;16.17;14.67;;;8.10;35.50;;;;;;10449634;28;20221;-73
2020/12/29 16:36:09;;;;;;;13.53;12.13;;;8.00;35.60;;;;;;10448945;28;20212;-73
2020/12/29 16:41:11;;;;;;;8.03;7.23;;;7.80;35.60;;;;;;10450999;28;20250;-73
2020/12/29 16:46:13;;;;;;;6.43;5.83;;;7.70;35.70;;;;;;10458829;28;20251;-73
2020/12/29 16:51:16;;;;;;;8.17;7.37;;;7.60;35.80;;;;;;10451949;28;20227;-73
2020/12/29 16:56:19;;;;;;;11.60;9.93;;;7.50;35.80;;;;;;10449784;28;20765;-73
2020/12/29 17:01:21;;;;;;;16.03;13.47;;;7.50;35.90;;;;;;10447197;28;20313;-73
2020/12/29 17:06:25;;;;;;;14.10;12.57;;;7.40;35.90;;;;;;10451055;28;20229;-73
2020/12/29 17:11:27;;;;;;;15.73;14.03;;;7.30;36.00;;;;;;10447047;28;20229;-73
2020/12/29 17:16:43;;;;;;;14.93;13.23;;;7.20;36.00;;;;;;10457215;28;20322;-73
2020/12/29 17:22:00;;;;;;;14.00;12.57;;;7.20;36.20;;;;;;10450490;28;20631;-73
2020/12/29 17:27:04;;;;;;;26.20;23.83;;;7.10;36.30;;;;;;10450022;28;20320;-73
2020/12/29 17:32:07;;;;;;;22.00;19.70;;;7.10;36.20;;;;;;10451242;28;20221;-73
2020/12/29 17:37:10;;;;;;;15.30;13.73;;;7.00;36.20;;;;;;10447574;28;20613;-74
2020/12/29 17:42:12;;;;;;;15.23;13.27;;;6.80;36.20;;;;;;10448436;28;20245;-73
2020/12/29 17:47:14;;;;;;;13.37;11.27;;;6.70;36.40;;;;;;10453925;28;20228;-74
2020/12/29 17:52:17;;;;;;;13.30;11.73;;;6.70;36.60;;;;;;10454568;28;20249;-74
2020/12/29 17:57:20;;;;;;;13.10;11.70;;;6.70;36.70;;;;;;10461930;28;20241;-75
2020/12/29 18:02:22;;;;;;;12.87;11.53;;;6.70;36.70;;;;;;10453221;28;20685;-75
2020/12/29 18:07:25;;;;;;;13.30;11.90;;;6.60;36.50;;;;;;10456144;28;20251;-76
2020/12/29 18:12:27;;;;;;;14.23;12.73;;;6.60;36.50;;;;;;10459646;28;20715;-76
2020/12/29 18:17:29;;;;;;;14.77;12.20;;;6.50;36.50;;;;;;10461293;28;20225;-75
2020/12/29 18:22:32;;;;;;;10.97;9.63;;;6.30;36.70;;;;;;10453099;28;20225;-76
2020/12/29 18:27:35;;;;;;;14.43;12.80;;;6.30;36.90;;;;;;10463822;28;20229;-75
2020/12/29 18:32:37;;;;;;;12.40;10.83;;;6.20;36.90;;;;;;10457236;28;20239;-76
2020/12/29 18:37:41;;;;;;;17.40;13.50;;;6.20;36.90;;;;;;10458178;28;20303;-76
2020/12/29 18:42:43;;;;;;;23.20;15.60;;;6.20;36.90;;;;;;10457449;28;20316;-76
2020/12/29 18:47:45;;;;;;;35.40;20.97;;;6.10;36.80;;;;;;10463678;28;20519;-76
2020/12/29 18:52:48;;;;;;;45.70;26.13;;;6.00;36.80;;;;;;10451200;28;20223;-76
2020/12/29 18:57:50;;;;;;;119.07;65.47;;;5.90;37.10;;;;;;10463448;28;20588;-76
2020/12/29 19:02:52;;;;;;;82.80;50.80;;;5.80;37.40;;;;;;10453490;28;20223;-75
2020/12/29 19:07:55;;;;;;;78.57;45.93;;;5.80;37.50;;;;;;10450834;28;20705;-75
2020/12/29 19:12:57;;;;;;;41.07;29.90;;;5.70;37.40;;;;;;10460099;28;20221;-75
2020/12/29 19:17:59;;;;;;;18.10;14.20;;;5.70;37.40;;;;;;10453918;28;20223;-76
2020/12/29 19:23:03;;;;;;;32.70;26.50;;;5.70;37.40;;;;;;10462625;28;20244;-75
2020/12/29 19:28:10;;;;;;;19.43;15.37;;;5.60;37.30;;;;;;10451473;28;20220;-75
2020/12/29 19:33:22;;;;;;;24.70;22.40;;;5.50;37.40;;;;;;10450954;28;20323;-75
2020/12/29 19:38:25;;;;;;;21.63;19.70;;;5.40;38.40;;;;;;10458918;28;20232;-75
2020/12/29 19:43:29;;;;;;;14.83;13.13;;;5.30;38.00;;;;;;10452640;28;20217;-75
2020/12/29 19:48:31;;;;;;;12.73;11.43;;;5.30;38.10;;;;;;10465234;28;20229;-75
2020/12/29 19:53:35;;;;;;;17.43;14.20;;;5.30;38.00;;;;;;10451163;28;20232;-75
2020/12/29 19:58:37;;;;;;;23.57;20.53;;;5.40;38.30;;;;;;10453961;28;20319;-75
2020/12/29 20:03:39;;;;;;;18.07;14.90;;;5.40;38.20;;;;;;10449797;28;20231;-75
2020/12/29 20:08:42;;;;;;;14.50;12.23;;;5.40;38.20;;;;;;10456885;28;20229;-76
2020/12/29 20:13:44;;;;;;;13.50;11.13;;;5.50;38.20;;;;;;10468735;28;20727;-75
2020/12/29 20:18:46;;;;;;;11.07;9.37;;;5.50;38.10;;;;;;10447500;28;20237;-75
2020/12/29 20:23:50;;;;;;;10.10;9.00;;;5.50;38.10;;;;;;10452936;28;20282;-76
2020/12/29 20:28:53;;;;;;;12.50;11.17;;;5.60;38.10;;;;;;10450403;28;20774;-76
2020/12/29 20:33:56;;;;;;;13.50;10.17;;;5.60;37.90;;;;;;10456282;28;20231;-76
2020/12/29 20:38:59;;;;;;;9.97;8.20;;;5.50;38.70;;;;;;10464833;28;20641;-75
2020/12/29 20:44:01;;;;;;;9.27;7.67;;;5.40;38.00;;;;;;10450100;28;20252;-74
2020/12/29 20:49:03;;;;;;;8.90;8.00;;;5.40;38.20;;;;;;10458442;28;20721;-75
2020/12/29 20:54:06;;;;;;;10.10;8.50;;;5.30;38.40;;;;;;10449234;28;20235;-75
2020/12/29 20:59:09;;;;;;;8.83;7.67;;;5.30;38.70;;;;;;10450425;28;20233;-75
2020/12/29 21:04:11;;;;;;;9.30;8.27;;;5.30;38.60;;;;;;10447814;28;20224;-75
2020/12/29 21:09:14;;;;;;;10.13;8.57;;;5.40;38.60;;;;;;10452614;28;20714;-74
2020/12/29 21:14:16;;;;;;;14.23;12.37;;;5.40;38.70;;;;;;10470808;28;20246;-74
2020/12/29 21:19:19;;;;;;;12.10;9.70;;;5.40;38.60;;;;;;10456714;28;20229;-74
2020/12/29 21:24:22;;;;;;;10.10;7.97;;;5.40;38.50;;;;;;10460521;28;20232;-74
2020/12/29 21:29:24;;;;;;;8.03;7.20;;;5.30;38.90;;;;;;10458142;28;20588;-75
2020/12/29 21:34:29;;;;;;;6.13;5.53;;;5.30;38.90;;;;;;10462234;28;20229;-74
2020/12/29 21:39:35;;;;;;;8.60;5.90;;;5.30;39.10;;;;;;10468943;28;20528;-74
2020/12/29 21:44:37;;;;;;;8.77;6.80;;;5.30;39.40;;;;;;10457423;28;20237;-74
2020/12/29 21:49:39;;;;;;;15.90;9.90;;;5.30;39.40;;;;;;10458014;28;20225;-74
2020/12/29 21:54:42;;;;;;;10.50;7.40;;;5.30;39.40;;;;;;10454651;28;20224;-75
2020/12/29 21:59:44;;;;;;;7.07;6.00;;;5.40;39.50;;;;;;10459760;28;20599;-74
2020/12/29 22:04:46;;;;;;;6.13;5.23;;;5.40;39.30;;;;;;10460327;28;20225;-74
2020/12/29 22:09:49;;;;;;;7.33;5.03;;;5.50;39.40;;;;;;10458972;28;20236;-73
2020/12/29 22:14:54;;;;;;;6.00;5.33;;;5.40;39.50;;;;;;10465231;28;20231;-74
2020/12/29 22:19:56;;;;;;;5.27;4.77;;;5.50;39.50;;;;;;10452738;28;20249;-73
2020/12/29 22:24:59;;;;;;;5.00;4.50;;;5.50;39.50;;;;;;10468322;28;20235;-73
2020/12/29 22:30:01;;;;;;;5.17;4.57;;;5.60;39.80;;;;;;10456669;28;20224;-72
2020/12/29 22:35:03;;;;;;;4.97;4.47;;;5.60;39.60;;;;;;10456205;28;20235;-73
2020/12/29 22:40:07;;;;;;;6.53;5.00;;;5.70;39.60;;;;;;10454573;28;20221;-73
2020/12/29 22:45:09;;;;;;;5.60;4.93;;;5.70;39.50;;;;;;10459479;28;20224;-73
2020/12/29 22:50:28;;;;;;;5.00;4.53;;;5.70;39.40;;;;;;10454050;28;20261;-73
2020/12/29 22:55:31;;;;;;;5.00;4.50;;;5.70;39.30;;;;;;10454789;28;20224;-73
2020/12/29 23:00:33;;;;;;;5.40;4.07;;;5.70;39.30;;;;;;10451256;28;20224;-73
2020/12/29 23:05:35;;;;;;;5.50;4.90;;;5.70;39.30;;;;;;10459893;28;20232;-73
2020/12/29 23:10:38;;;;;;;5.67;5.13;;;5.70;39.30;;;;;;10459109;28;20229;-76
2020/12/29 23:15:41;;;;;;;7.93;6.60;;;5.80;39.40;;;;;;10451784;28;20225;-74
2020/12/29 23:20:43;;;;;;;5.57;4.80;;;5.80;39.10;;;;;;10460639;28;20833;-74
2020/12/29 23:25:46;;;;;;;4.90;4.40;;;5.70;39.00;;;;;;10451258;28;20235;-74
2020/12/29 23:30:49;;;;;;;5.93;5.40;;;5.60;39.10;;;;;;10457639;28;20236;-74
2020/12/29 23:35:52;;;;;;;6.53;4.90;;;5.50;39.30;;;;;;10456348;28;20846;-74
2020/12/29 23:40:55;;;;;;;5.13;4.63;;;5.50;39.40;;;;;;10457571;28;20320;-74
2020/12/29 23:45:57;;;;;;;5.70;5.10;;;5.50;39.50;;;;;;10456464;28;20232;-75
2020/12/29 23:50:59;;;;;;;5.30;4.80;;;5.50;39.50;;;;;;10454849;28;20233;-74
2020/12/29 23:56:02;;;;;;;5.10;4.60;;;5.50;39.40;;;;;;10457001;28;20727;-74
